sensor_id;sensor_type;location;lat;lon;timestamp;pressure;altitude;pressure_sealevel;temperature;humidity
13705;BME280;6924;52.122;9.952;2022-07-05T00:00:00;100941.94;;;16.43;74.00
13705;BME280;6924;52.122;9.952;2022-07-05T00:02:27;100941.72;;;16.48;73.55
13705;BME280;6924;52.122;9.952;2022-07-05T00:04:54;100948.75;;;16.50;73.52
13705;BME280;6924;52.122;9.952;2022-07-05T00:07:21;100947.75;;;16.46;73.93
13705;BME280;6924;52.122;9.952;2022-07-05T00:09:50;100943.09;;;16.42;73.95
13705;BME280;6924;52.122;9.952;2022-07-05T00:12:18;100947.75;;;16.25;74.87
13705;BME280;6924;52.122;9.952;2022-07-05T00:14:45;100947.88;;;16.29;74.93
13705;BME280;6924;52.122;9.952;2022-07-05T00:17:11;100948.22;;;16.27;74.91
13705;BME280;6924;52.122;9.952;2022-07-05T00:19:38;100947.91;;;16.20;75.05
13705;BME280;6924;52.122;9.952;2022-07-05T00:22:06;100947.41;;;16.18;74.77
13705;BME280;6924;52.122;9.952;2022-07-05T00:24:33;100950.97;;;16.15;75.60
13705;BME280;6924;52.122;9.952;2022-07-05T00:27:00;100948.94;;;16.16;75.14
13705;BME280;6924;52.122;9.952;2022-07-05T00:29:27;100947.09;;;16.20;74.81
13705;BME280;6924;52.122;9.952;2022-07-05T00:31:54;100945.06;;;16.20;74.48
13705;BME280;6924;52.122;9.952;2022-07-05T00:34:20;100949.97;;;16.11;74.59
13705;BME280;6924;52.122;9.952;2022-07-05T00:36:47;100957.56;;;16.07;74.05
13705;BME280;6924;52.122;9.952;2022-07-05T00:39:15;100956.91;;;16.01;73.89
13705;BME280;6924;52.122;9.952;2022-07-05T00:41:41;100950.41;;;15.92;73.83
13705;BME280;6924;52.122;9.952;2022-07-05T00:44:09;100954.63;;;15.86;73.62
13705;BME280;6924;52.122;9.952;2022-07-05T00:46:37;100955.00;;;15.58;75.11
13705;BME280;6924;52.122;9.952;2022-07-05T00:49:05;100965.59;;;15.49;75.80
13705;BME280;6924;52.122;9.952;2022-07-05T00:51:33;100964.28;;;15.46;76.36
13705;BME280;6924;52.122;9.952;2022-07-05T00:54:01;100968.47;;;15.32;77.98
13705;BME280;6924;52.122;9.952;2022-07-05T00:56:29;100954.06;;;15.37;77.31
13705;BME280;6924;52.122;9.952;2022-07-05T00:58:55;100966.97;;;15.25;78.04
13705;BME280;6924;52.122;9.952;2022-07-05T01:01:21;100970.00;;;15.29;78.15
13705;BME280;6924;52.122;9.952;2022-07-05T01:03:48;100961.13;;;15.13;78.99
13705;BME280;6924;52.122;9.952;2022-07-05T01:06:14;100971.34;;;15.05;79.62
13705;BME280;6924;52.122;9.952;2022-07-05T01:08:44;100966.00;;;15.13;79.18
13705;BME280;6924;52.122;9.952;2022-07-05T01:11:11;100972.34;;;14.92;80.13
13705;BME280;6924;52.122;9.952;2022-07-05T01:13:39;100974.53;;;14.86;80.44
13705;BME280;6924;52.122;9.952;2022-07-05T01:16:06;100975.06;;;14.97;79.91
13705;BME280;6924;52.122;9.952;2022-07-05T01:18:33;100972.03;;;14.94;80.13
13705;BME280;6924;52.122;9.952;2022-07-05T01:21:01;100971.19;;;15.02;79.33
13705;BME280;6924;52.122;9.952;2022-07-05T01:23:30;100971.03;;;14.98;79.45
13705;BME280;6924;52.122;9.952;2022-07-05T01:26:00;100962.97;;;14.92;79.53
13705;BME280;6924;52.122;9.952;2022-07-05T01:28:27;100965.81;;;14.92;79.63
13705;BME280;6924;52.122;9.952;2022-07-05T01:30:54;100967.34;;;14.89;79.70
13705;BME280;6924;52.122;9.952;2022-07-05T01:33:26;100964.16;;;14.91;79.33
13705;BME280;6924;52.122;9.952;2022-07-05T01:35:53;100965.81;;;14.92;78.86
13705;BME280;6924;52.122;9.952;2022-07-05T01:38:20;100960.13;;;14.92;78.51
13705;BME280;6924;52.122;9.952;2022-07-05T01:40:47;100966.00;;;14.86;78.67
13705;BME280;6924;52.122;9.952;2022-07-05T01:43:17;100958.97;;;14.84;78.72
13705;BME280;6924;52.122;9.952;2022-07-05T01:45:45;100963.16;;;14.86;78.42
13705;BME280;6924;52.122;9.952;2022-07-05T01:48:12;100961.13;;;14.87;78.60
13705;BME280;6924;52.122;9.952;2022-07-05T01:50:41;100963.78;;;14.75;79.34
13705;BME280;6924;52.122;9.952;2022-07-05T01:53:11;100962.81;;;14.71;79.63
13705;BME280;6924;52.122;9.952;2022-07-05T01:55:40;100962.28;;;14.60;80.22
13705;BME280;6924;52.122;9.952;2022-07-05T01:58:08;100965.28;;;14.63;79.26
13705;BME280;6924;52.122;9.952;2022-07-05T02:00:42;100955.25;;;14.66;78.92
13705;BME280;6924;52.122;9.952;2022-07-05T02:03:08;100951.56;;;14.65;79.25
13705;BME280;6924;52.122;9.952;2022-07-05T02:05:35;100961.28;;;14.64;79.18
13705;BME280;6924;52.122;9.952;2022-07-05T02:08:02;100957.03;;;14.44;80.25
13705;BME280;6924;52.122;9.952;2022-07-05T02:10:29;100949.34;;;14.45;80.41
13705;BME280;6924;52.122;9.952;2022-07-05T02:12:55;100952.84;;;14.33;81.19
13705;BME280;6924;52.122;9.952;2022-07-05T02:15:23;100950.81;;;14.34;81.72
13705;BME280;6924;52.122;9.952;2022-07-05T02:17:49;100951.16;;;14.32;82.38
13705;BME280;6924;52.122;9.952;2022-07-05T02:20:16;100954.28;;;14.22;81.99
13705;BME280;6924;52.122;9.952;2022-07-05T02:22:42;100949.75;;;14.12;82.32
13705;BME280;6924;52.122;9.952;2022-07-05T02:25:11;100955.22;;;14.00;83.35
13705;BME280;6924;52.122;9.952;2022-07-05T02:27:37;100954.72;;;13.98;83.77
13705;BME280;6924;52.122;9.952;2022-07-05T02:30:04;100964.69;;;13.87;84.83
13705;BME280;6924;52.122;9.952;2022-07-05T02:32:32;100965.63;;;13.73;85.34
13705;BME280;6924;52.122;9.952;2022-07-05T02:34:59;100961.41;;;13.62;86.13
13705;BME280;6924;52.122;9.952;2022-07-05T02:37:26;100954.72;;;13.67;86.21
13705;BME280;6924;52.122;9.952;2022-07-05T02:39:54;100954.38;;;13.59;86.94
13705;BME280;6924;52.122;9.952;2022-07-05T02:42:20;100959.63;;;13.75;85.48
13705;BME280;6924;52.122;9.952;2022-07-05T02:44:47;100963.22;;;13.89;84.19
13705;BME280;6924;52.122;9.952;2022-07-05T02:47:14;100956.19;;;13.95;83.49
13705;BME280;6924;52.122;9.952;2022-07-05T02:49:42;100960.22;;;13.94;83.45
13705;BME280;6924;52.122;9.952;2022-07-05T02:52:08;100965.47;;;13.70;85.79
13705;BME280;6924;52.122;9.952;2022-07-05T02:54:34;100961.22;;;13.58;86.41
13705;BME280;6924;52.122;9.952;2022-07-05T02:57:01;100966.16;;;13.75;84.36
13705;BME280;6924;52.122;9.952;2022-07-05T02:59:28;100964.34;;;13.79;83.88
13705;BME280;6924;52.122;9.952;2022-07-05T03:01:55;100967.06;;;13.84;83.06
13705;BME280;6924;52.122;9.952;2022-07-05T03:04:22;100973.22;;;13.87;82.58
13705;BME280;6924;52.122;9.952;2022-07-05T03:06:52;100974.09;;;13.87;82.61
13705;BME280;6924;52.122;9.952;2022-07-05T03:09:19;100973.56;;;13.85;83.03
13705;BME280;6924;52.122;9.952;2022-07-05T03:11:45;100982.75;;;13.82;83.38
13705;BME280;6924;52.122;9.952;2022-07-05T03:14:11;100975.34;;;13.72;83.71
13705;BME280;6924;52.122;9.952;2022-07-05T03:16:38;100979.22;;;13.76;83.65
13705;BME280;6924;52.122;9.952;2022-07-05T03:19:04;100970.31;;;13.69;84.08
13705;BME280;6924;52.122;9.952;2022-07-05T03:21:31;100976.47;;;13.62;83.96
13705;BME280;6924;52.122;9.952;2022-07-05T03:23:58;100969.47;;;13.69;83.96
13705;BME280;6924;52.122;9.952;2022-07-05T03:26:25;100975.84;;;13.74;83.67
13705;BME280;6924;52.122;9.952;2022-07-05T03:28:51;100977.16;;;13.68;84.66
13705;BME280;6924;52.122;9.952;2022-07-05T03:31:18;100979.81;;;13.64;85.13
13705;BME280;6924;52.122;9.952;2022-07-05T03:33:44;100965.09;;;13.62;85.53
13705;BME280;6924;52.122;9.952;2022-07-05T03:36:10;100968.63;;;13.68;85.93
13705;BME280;6924;52.122;9.952;2022-07-05T03:38:37;100971.16;;;13.70;85.98
13705;BME280;6924;52.122;9.952;2022-07-05T03:41:05;100973.34;;;13.73;86.04
13705;BME280;6924;52.122;9.952;2022-07-05T03:43:31;100975.84;;;13.74;86.40
13705;BME280;6924;52.122;9.952;2022-07-05T03:45:58;100979.06;;;13.81;86.30
13705;BME280;6924;52.122;9.952;2022-07-05T03:48:24;100977.56;;;13.84;86.47
13705;BME280;6924;52.122;9.952;2022-07-05T03:50:51;100984.28;;;13.88;85.97
13705;BME280;6924;52.122;9.952;2022-07-05T03:53:17;100981.94;;;13.90;85.95
13705;BME280;6924;52.122;9.952;2022-07-05T03:55:44;100985.78;;;13.85;86.03
13705;BME280;6924;52.122;9.952;2022-07-05T03:58:11;100988.94;;;13.84;86.45
13705;BME280;6924;52.122;9.952;2022-07-05T04:00:38;100985.22;;;13.75;87.06
13705;BME280;6924;52.122;9.952;2022-07-05T04:03:04;100984.56;;;13.78;87.47
13705;BME280;6924;52.122;9.952;2022-07-05T04:05:31;100985.78;;;13.85;86.97
13705;BME280;6924;52.122;9.952;2022-07-05T04:07:57;100993.63;;;13.89;87.02
13705;BME280;6924;52.122;9.952;2022-07-05T04:10:24;100995.03;;;13.91;87.19
13705;BME280;6924;52.122;9.952;2022-07-05T04:12:50;100998.34;;;13.93;87.09
13705;BME280;6924;52.122;9.952;2022-07-05T04:15:18;101000.22;;;13.98;87.20
13705;BME280;6924;52.122;9.952;2022-07-05T04:17:46;101009.59;;;13.98;87.14
13705;BME280;6924;52.122;9.952;2022-07-05T04:20:13;101007.59;;;13.99;87.72
13705;BME280;6924;52.122;9.952;2022-07-05T04:22:40;101010.63;;;14.02;87.91
13705;BME280;6924;52.122;9.952;2022-07-05T04:25:07;101011.63;;;13.98;88.58
13705;BME280;6924;52.122;9.952;2022-07-05T04:27:42;101017.66;;;14.05;87.79
13705;BME280;6924;52.122;9.952;2022-07-05T04:30:10;101011.47;;;14.03;87.22
13705;BME280;6924;52.122;9.952;2022-07-05T04:32:38;101022.38;;;14.10;86.80
13705;BME280;6924;52.122;9.952;2022-07-05T04:35:04;101017.50;;;14.10;87.10
13705;BME280;6924;52.122;9.952;2022-07-05T04:37:31;101024.72;;;14.16;86.84
13705;BME280;6924;52.122;9.952;2022-07-05T04:39:58;101026.28;;;14.22;86.63
13705;BME280;6924;52.122;9.952;2022-07-05T04:42:24;101014.72;;;14.27;87.05
13705;BME280;6924;52.122;9.952;2022-07-05T04:44:51;101017.78;;;14.31;86.62
13705;BME280;6924;52.122;9.952;2022-07-05T04:47:17;101020.25;;;14.33;86.74
13705;BME280;6924;52.122;9.952;2022-07-05T04:49:45;101024.66;;;14.39;86.24
13705;BME280;6924;52.122;9.952;2022-07-05T04:52:12;101024.47;;;14.44;86.82
13705;BME280;6924;52.122;9.952;2022-07-05T04:54:38;101027.53;;;14.47;86.06
13705;BME280;6924;52.122;9.952;2022-07-05T04:57:04;101025.38;;;14.53;86.14
13705;BME280;6924;52.122;9.952;2022-07-05T04:59:31;101036.94;;;14.57;85.99
13705;BME280;6924;52.122;9.952;2022-07-05T05:01:57;101029.44;;;14.61;87.66
13705;BME280;6924;52.122;9.952;2022-07-05T05:04:24;101025.44;;;14.62;88.47
13705;BME280;6924;52.122;9.952;2022-07-05T05:06:51;101022.59;;;14.62;88.85
13705;BME280;6924;52.122;9.952;2022-07-05T05:09:18;101023.56;;;14.66;88.51
13705;BME280;6924;52.122;9.952;2022-07-05T05:11:46;101033.13;;;14.70;89.29
13705;BME280;6924;52.122;9.952;2022-07-05T05:14:12;101027.31;;;14.75;90.00
13705;BME280;6924;52.122;9.952;2022-07-05T05:16:39;101031.31;;;14.83;90.24
13705;BME280;6924;52.122;9.952;2022-07-05T05:19:05;101034.50;;;14.90;90.51
13705;BME280;6924;52.122;9.952;2022-07-05T05:21:32;101032.03;;;14.97;89.88
13705;BME280;6924;52.122;9.952;2022-07-05T05:23:59;101041.75;;;15.05;89.61
13705;BME280;6924;52.122;9.952;2022-07-05T05:26:26;101038.06;;;15.13;87.57
13705;BME280;6924;52.122;9.952;2022-07-05T05:28:53;101042.94;;;15.21;86.56
13705;BME280;6924;52.122;9.952;2022-07-05T05:31:19;101042.94;;;15.30;85.96
13705;BME280;6924;52.122;9.952;2022-07-05T05:33:46;101039.06;;;15.35;85.07
13705;BME280;6924;52.122;9.952;2022-07-05T05:36:12;101031.88;;;15.37;85.43
13705;BME280;6924;52.122;9.952;2022-07-05T05:38:39;101037.06;;;15.44;85.60
13705;BME280;6924;52.122;9.952;2022-07-05T05:41:07;101052.13;;;15.53;87.10
13705;BME280;6924;52.122;9.952;2022-07-05T05:43:34;101047.59;;;15.61;86.05
13705;BME280;6924;52.122;9.952;2022-07-05T05:46:00;101043.06;;;15.68;85.68
13705;BME280;6924;52.122;9.952;2022-07-05T05:48:26;101047.44;;;15.75;84.65
13705;BME280;6924;52.122;9.952;2022-07-05T05:50:53;101060.81;;;15.83;84.25
13705;BME280;6924;52.122;9.952;2022-07-05T05:53:19;101054.44;;;15.95;84.47
13705;BME280;6924;52.122;9.952;2022-07-05T05:55:46;101062.31;;;15.98;83.55
13705;BME280;6924;52.122;9.952;2022-07-05T05:58:15;101065.66;;;16.08;84.40
13705;BME280;6924;52.122;9.952;2022-07-05T06:00:42;101064.78;;;16.17;84.18
13705;BME280;6924;52.122;9.952;2022-07-05T06:03:09;101053.84;;;16.27;84.80
13705;BME280;6924;52.122;9.952;2022-07-05T06:05:35;101054.13;;;16.35;84.41
13705;BME280;6924;52.122;9.952;2022-07-05T06:08:02;101051.59;;;16.42;83.44
13705;BME280;6924;52.122;9.952;2022-07-05T06:10:30;101053.06;;;16.48;83.56
13705;BME280;6924;52.122;9.952;2022-07-05T06:12:58;101060.28;;;16.54;84.17
13705;BME280;6924;52.122;9.952;2022-07-05T06:15:27;101061.38;;;16.62;84.28
13705;BME280;6924;52.122;9.952;2022-07-05T06:17:54;101067.41;;;16.69;83.90
13705;BME280;6924;52.122;9.952;2022-07-05T06:20:22;101059.63;;;16.78;82.83
13705;BME280;6924;52.122;9.952;2022-07-05T06:22:49;101064.97;;;16.88;82.95
13705;BME280;6924;52.122;9.952;2022-07-05T06:25:16;101065.91;;;17.01;83.97
13705;BME280;6924;52.122;9.952;2022-07-05T06:27:44;101062.81;;;17.06;83.90
13705;BME280;6924;52.122;9.952;2022-07-05T06:30:14;101074.19;;;17.15;83.03
13705;BME280;6924;52.122;9.952;2022-07-05T06:32:44;101076.81;;;17.29;82.19
13705;BME280;6924;52.122;9.952;2022-07-05T06:35:10;101074.38;;;17.40;81.97
13705;BME280;6924;52.122;9.952;2022-07-05T06:37:41;101070.09;;;17.46;81.26
13705;BME280;6924;52.122;9.952;2022-07-05T06:40:09;101071.31;;;17.57;81.35
13705;BME280;6924;52.122;9.952;2022-07-05T06:42:37;101080.88;;;17.61;81.07
13705;BME280;6924;52.122;9.952;2022-07-05T06:45:05;101080.69;;;17.66;80.32
13705;BME280;6924;52.122;9.952;2022-07-05T06:47:31;101082.84;;;17.69;79.85
13705;BME280;6924;52.122;9.952;2022-07-05T06:49:59;101081.50;;;17.88;80.47
13705;BME280;6924;52.122;9.952;2022-07-05T06:52:27;101080.25;;;18.10;79.98
13705;BME280;6924;52.122;9.952;2022-07-05T06:54:54;101094.38;;;18.27;77.99
13705;BME280;6924;52.122;9.952;2022-07-05T06:57:21;101086.66;;;18.40;77.85
13705;BME280;6924;52.122;9.952;2022-07-05T06:59:48;101087.16;;;18.54;76.99
13705;BME280;6924;52.122;9.952;2022-07-05T07:02:14;101090.97;;;18.58;74.74
13705;BME280;6924;52.122;9.952;2022-07-05T07:04:40;101088.09;;;18.58;75.88
13705;BME280;6924;52.122;9.952;2022-07-05T07:07:08;101093.97;;;18.74;76.00
13705;BME280;6924;52.122;9.952;2022-07-05T07:09:56;101093.97;;;18.74;73.23
13705;BME280;6924;52.122;9.952;2022-07-05T07:12:22;101092.41;;;18.77;71.92
13705;BME280;6924;52.122;9.952;2022-07-05T07:14:48;101093.88;;;18.83;73.76
13705;BME280;6924;52.122;9.952;2022-07-05T07:17:15;101102.38;;;18.92;72.76
13705;BME280;6924;52.122;9.952;2022-07-05T07:19:41;101102.84;;;18.94;73.09
13705;BME280;6924;52.122;9.952;2022-07-05T07:22:09;101095.66;;;19.00;72.63
13705;BME280;6924;52.122;9.952;2022-07-05T07:24:35;101099.84;;;18.90;72.14
13705;BME280;6924;52.122;9.952;2022-07-05T07:27:02;101098.41;;;18.72;72.36
13705;BME280;6924;52.122;9.952;2022-07-05T07:29:29;101096.38;;;18.72;72.10
13705;BME280;6924;52.122;9.952;2022-07-05T07:31:56;101099.16;;;18.81;71.77
13705;BME280;6924;52.122;9.952;2022-07-05T07:34:23;101093.50;;;18.72;68.12
13705;BME280;6924;52.122;9.952;2022-07-05T07:36:50;101094.59;;;18.92;70.22
13705;BME280;6924;52.122;9.952;2022-07-05T07:39:18;101099.69;;;19.11;69.70
13705;BME280;6924;52.122;9.952;2022-07-05T07:41:45;101104.69;;;19.27;68.90
13705;BME280;6924;52.122;9.952;2022-07-05T07:44:11;101101.00;;;19.38;69.30
13705;BME280;6924;52.122;9.952;2022-07-05T07:46:38;101096.69;;;19.45;68.17
13705;BME280;6924;52.122;9.952;2022-07-05T07:49:05;101092.34;;;19.51;67.53
13705;BME280;6924;52.122;9.952;2022-07-05T07:51:32;101085.03;;;19.53;67.16
13705;BME280;6924;52.122;9.952;2022-07-05T07:53:59;101085.16;;;19.69;66.42
13705;BME280;6924;52.122;9.952;2022-07-05T07:56:27;101088.22;;;19.76;63.98
13705;BME280;6924;52.122;9.952;2022-07-05T07:58:53;101094.44;;;19.78;64.95
13705;BME280;6924;52.122;9.952;2022-07-05T08:01:20;101098.34;;;19.86;63.96
13705;BME280;6924;52.122;9.952;2022-07-05T08:03:46;101094.34;;;19.91;62.46
13705;BME280;6924;52.122;9.952;2022-07-05T08:06:13;101086.22;;;19.93;63.68
13705;BME280;6924;52.122;9.952;2022-07-05T08:08:42;101085.59;;;19.99;63.22
13705;BME280;6924;52.122;9.952;2022-07-05T08:11:11;101088.00;;;19.97;61.40
13705;BME280;6924;52.122;9.952;2022-07-05T08:13:40;101080.69;;;20.00;60.78
13705;BME280;6924;52.122;9.952;2022-07-05T08:16:08;101084.88;;;20.02;58.90
13705;BME280;6924;52.122;9.952;2022-07-05T08:18:35;101087.63;;;19.99;58.54
13705;BME280;6924;52.122;9.952;2022-07-05T08:21:19;101077.44;;;20.01;56.92
13705;BME280;6924;52.122;9.952;2022-07-05T08:23:57;101082.34;;;20.01;58.87
13705;BME280;6924;52.122;9.952;2022-07-05T08:26:24;101086.44;;;20.00;59.28
13705;BME280;6924;52.122;9.952;2022-07-05T08:28:52;101083.78;;;20.07;59.48
13705;BME280;6924;52.122;9.952;2022-07-05T08:31:19;101082.03;;;20.18;58.43
13705;BME280;6924;52.122;9.952;2022-07-05T08:33:45;101081.66;;;20.20;58.46
13705;BME280;6924;52.122;9.952;2022-07-05T08:36:12;101089.72;;;20.30;58.53
13705;BME280;6924;52.122;9.952;2022-07-05T08:38:38;101081.50;;;20.29;54.76
13705;BME280;6924;52.122;9.952;2022-07-05T08:41:07;101082.31;;;20.29;55.23
13705;BME280;6924;52.122;9.952;2022-07-05T08:43:35;101082.63;;;20.40;55.77
13705;BME280;6924;52.122;9.952;2022-07-05T08:46:05;101073.88;;;20.52;55.03
13705;BME280;6924;52.122;9.952;2022-07-05T08:48:35;101080.97;;;20.71;53.14
13705;BME280;6924;52.122;9.952;2022-07-05T08:51:08;101079.13;;;20.62;52.21
13705;BME280;6924;52.122;9.952;2022-07-05T08:53:37;101078.16;;;20.42;51.98
13705;BME280;6924;52.122;9.952;2022-07-05T08:56:04;101084.38;;;20.44;49.68
13705;BME280;6924;52.122;9.952;2022-07-05T08:58:32;101082.63;;;20.40;49.72
13705;BME280;6924;52.122;9.952;2022-07-05T09:00:58;101090.84;;;20.41;49.22
13705;BME280;6924;52.122;9.952;2022-07-05T09:03:31;101091.53;;;20.51;50.94
13705;BME280;6924;52.122;9.952;2022-07-05T09:06:00;101085.69;;;20.63;51.17
13705;BME280;6924;52.122;9.952;2022-07-05T09:08:29;101089.97;;;20.69;50.21
13705;BME280;6924;52.122;9.952;2022-07-05T09:11:00;101087.25;;;20.76;48.25
13705;BME280;6924;52.122;9.952;2022-07-05T09:13:27;101078.19;;;20.74;49.32
13705;BME280;6924;52.122;9.952;2022-07-05T09:15:54;101087.09;;;20.69;48.61
13705;BME280;6924;52.122;9.952;2022-07-05T09:18:42;101092.47;;;20.71;49.18
13705;BME280;6924;52.122;9.952;2022-07-05T09:21:14;101087.25;;;20.76;51.96
13705;BME280;6924;52.122;9.952;2022-07-05T09:23:40;101080.25;;;20.58;51.90
13705;BME280;6924;52.122;9.952;2022-07-05T09:26:08;101087.91;;;20.70;51.45
13705;BME280;6924;52.122;9.952;2022-07-05T09:28:34;101088.13;;;20.77;49.55
13705;BME280;6924;52.122;9.952;2022-07-05T09:31:01;101079.84;;;20.91;48.74
13705;BME280;6924;52.122;9.952;2022-07-05T09:33:27;101088.66;;;20.82;50.43
13705;BME280;6924;52.122;9.952;2022-07-05T09:35:55;101080.97;;;20.71;51.72
13705;BME280;6924;52.122;9.952;2022-07-05T09:38:23;101078.56;;;20.73;51.20
13705;BME280;6924;52.122;9.952;2022-07-05T09:40:52;101077.19;;;20.67;50.08
13705;BME280;6924;52.122;9.952;2022-07-05T09:43:20;101079.44;;;20.29;49.97
13705;BME280;6924;52.122;9.952;2022-07-05T09:45:51;101079.56;;;20.33;47.70
13705;BME280;6924;52.122;9.952;2022-07-05T09:48:18;101082.16;;;20.38;48.37
13705;BME280;6924;52.122;9.952;2022-07-05T09:50:45;101078.69;;;20.48;50.48
13705;BME280;6924;52.122;9.952;2022-07-05T09:53:12;101073.47;;;20.66;48.98
13705;BME280;6924;52.122;9.952;2022-07-05T09:55:40;101069.47;;;20.87;49.65
13705;BME280;6924;52.122;9.952;2022-07-05T09:58:07;101067.38;;;21.03;47.29
13705;BME280;6924;52.122;9.952;2022-07-05T10:00:33;101077.34;;;21.25;48.16
13705;BME280;6924;52.122;9.952;2022-07-05T10:03:01;101080.66;;;21.43;47.25
13705;BME280;6924;52.122;9.952;2022-07-05T10:05:29;101074.53;;;21.64;46.76
13705;BME280;6924;52.122;9.952;2022-07-05T10:07:57;101068.69;;;21.80;45.25
13705;BME280;6924;52.122;9.952;2022-07-05T10:10:27;101069.97;;;22.02;46.00
13705;BME280;6924;52.122;9.952;2022-07-05T10:12:56;101065.25;;;22.13;44.39
13705;BME280;6924;52.122;9.952;2022-07-05T10:15:24;101074.66;;;22.30;43.30
13705;BME280;6924;52.122;9.952;2022-07-05T10:17:53;101082.91;;;22.31;42.87
13705;BME280;6924;52.122;9.952;2022-07-05T10:20:27;101081.25;;;22.11;42.45
13705;BME280;6924;52.122;9.952;2022-07-05T10:22:56;101078.59;;;22.21;41.50
13705;BME280;6924;52.122;9.952;2022-07-05T10:25:27;101072.81;;;22.21;41.42
13705;BME280;6924;52.122;9.952;2022-07-05T10:27:54;101075.88;;;22.09;41.47
13705;BME280;6924;52.122;9.952;2022-07-05T10:30:22;101074.25;;;22.31;40.81
13705;BME280;6924;52.122;9.952;2022-07-05T10:32:49;101068.25;;;22.40;41.11
13705;BME280;6924;52.122;9.952;2022-07-05T10:35:16;101074.66;;;22.53;40.88
13705;BME280;6924;52.122;9.952;2022-07-05T10:37:44;101077.50;;;22.49;40.37
13705;BME280;6924;52.122;9.952;2022-07-05T10:40:11;101067.53;;;22.23;40.99
13705;BME280;6924;52.122;9.952;2022-07-05T10:42:41;101077.69;;;21.98;41.59
13705;BME280;6924;52.122;9.952;2022-07-05T10:45:28;101080.75;;;21.66;40.74
13705;BME280;6924;52.122;9.952;2022-07-05T10:50:51;101066.13;;;21.94;42.13
13705;BME280;6924;52.122;9.952;2022-07-05T10:53:19;101074.88;;;21.78;39.70
13705;BME280;6924;52.122;9.952;2022-07-05T10:55:48;101070.22;;;21.74;39.38
13705;BME280;6924;52.122;9.952;2022-07-05T10:58:21;101073.50;;;21.72;40.90
13705;BME280;6924;52.122;9.952;2022-07-05T11:00:49;101075.28;;;21.80;38.59
13705;BME280;6924;52.122;9.952;2022-07-05T11:03:35;101065.69;;;21.92;40.40
13705;BME280;6924;52.122;9.952;2022-07-05T11:06:02;101070.88;;;22.06;39.58
13705;BME280;6924;52.122;9.952;2022-07-05T11:08:30;101058.34;;;22.18;41.30
13705;BME280;6924;52.122;9.952;2022-07-05T11:11:11;101057.94;;;22.39;39.07
13705;BME280;6924;52.122;9.952;2022-07-05T11:13:41;101057.59;;;22.21;39.74
13705;BME280;6924;52.122;9.952;2022-07-05T11:16:21;101067.78;;;22.38;40.35
13705;BME280;6924;52.122;9.952;2022-07-05T11:18:51;101065.06;;;22.45;40.06
13705;BME280;6924;52.122;9.952;2022-07-05T11:21:22;101053.75;;;22.59;40.96
13705;BME280;6924;52.122;9.952;2022-07-05T11:23:49;101060.44;;;22.90;41.32
13705;BME280;6924;52.122;9.952;2022-07-05T11:26:17;101058.03;;;22.92;37.65
13705;BME280;6924;52.122;9.952;2022-07-05T11:28:47;101060.78;;;22.85;39.13
13705;BME280;6924;52.122;9.952;2022-07-05T11:31:41;101057.25;;;22.95;37.68
13705;BME280;6924;52.122;9.952;2022-07-05T11:34:12;101060.84;;;22.88;39.10
13705;BME280;6924;52.122;9.952;2022-07-05T11:36:39;101061.84;;;22.73;38.72
13705;BME280;6924;52.122;9.952;2022-07-05T11:39:13;101053.31;;;22.80;38.49
13705;BME280;6924;52.122;9.952;2022-07-05T11:41:43;101050.34;;;22.77;38.88
13705;BME280;6924;52.122;9.952;2022-07-05T11:44:11;101065.47;;;22.93;38.32
13705;BME280;6924;52.122;9.952;2022-07-05T11:46:38;101035.78;;;23.19;37.58
13705;BME280;6924;52.122;9.952;2022-07-05T11:49:04;101051.72;;;23.09;38.35
13705;BME280;6924;52.122;9.952;2022-07-05T11:51:31;101054.69;;;23.13;38.60
13705;BME280;6924;52.122;9.952;2022-07-05T11:53:57;101041.00;;;23.10;39.03
13705;BME280;6924;52.122;9.952;2022-07-05T11:56:27;101042.16;;;23.32;36.51
13705;BME280;6924;52.122;9.952;2022-07-05T11:58:53;101039.94;;;23.52;36.67
13705;BME280;6924;52.122;9.952;2022-07-05T12:01:21;101036.72;;;23.57;36.11
13705;BME280;6924;52.122;9.952;2022-07-05T12:03:54;101039.56;;;23.54;35.05
13705;BME280;6924;52.122;9.952;2022-07-05T12:06:21;101045.75;;;23.22;35.02
13705;BME280;6924;52.122;9.952;2022-07-05T12:09:01;101035.47;;;23.24;35.13
13705;BME280;6924;52.122;9.952;2022-07-05T12:11:27;101035.69;;;23.12;35.66
13705;BME280;6924;52.122;9.952;2022-07-05T12:14:19;101035.91;;;23.26;36.22
13705;BME280;6924;52.122;9.952;2022-07-05T12:16:47;101039.06;;;23.18;36.50
13705;BME280;6924;52.122;9.952;2022-07-05T12:19:23;101043.13;;;22.86;36.89
13705;BME280;6924;52.122;9.952;2022-07-05T12:21:52;101032.06;;;22.92;36.96
13705;BME280;6924;52.122;9.952;2022-07-05T12:24:19;101038.09;;;23.06;37.60
13705;BME280;6924;52.122;9.952;2022-07-05T12:26:45;101031.91;;;23.08;35.46
13705;BME280;6924;52.122;9.952;2022-07-05T12:29:12;101030.75;;;23.13;35.86
13705;BME280;6924;52.122;9.952;2022-07-05T12:31:59;101028.91;;;23.27;34.76
13705;BME280;6924;52.122;9.952;2022-07-05T12:34:26;101023.63;;;23.33;34.81
13705;BME280;6924;52.122;9.952;2022-07-05T12:36:53;101022.34;;;23.00;36.53
13705;BME280;6924;52.122;9.952;2022-07-05T12:39:19;101031.31;;;23.22;37.11
13705;BME280;6924;52.122;9.952;2022-07-05T12:41:46;101035.06;;;23.26;35.75
13705;BME280;6924;52.122;9.952;2022-07-05T12:44:18;101030.59;;;23.32;36.13
13705;BME280;6924;52.122;9.952;2022-07-05T12:46:44;101022.09;;;23.43;34.76
13705;BME280;6924;52.122;9.952;2022-07-05T12:49:12;101016.31;;;23.43;34.10
13705;BME280;6924;52.122;9.952;2022-07-05T12:51:41;101018.38;;;23.42;33.70
13705;BME280;6924;52.122;9.952;2022-07-05T12:54:17;101017.41;;;23.31;35.06
13705;BME280;6924;52.122;9.952;2022-07-05T12:57:02;101016.00;;;23.18;35.00
13705;BME280;6924;52.122;9.952;2022-07-05T12:59:57;101022.38;;;23.04;35.76
13705;BME280;6924;52.122;9.952;2022-07-05T13:02:33;101018.28;;;23.05;35.99
13705;BME280;6924;52.122;9.952;2022-07-05T13:05:01;101022.25;;;23.23;35.08
13705;BME280;6924;52.122;9.952;2022-07-05T13:07:27;101017.00;;;23.33;34.64